CheckWX is a tool to help pilots better visualize weather data.  It is not intended as a substitute for an official pre-flight weather briefing.

03:12:46 UTC

KMWC METAR
Lawrence J Timmerman Airport
Milwaukee, Wisconsin, USA
Current

18 mins ago

KMWC 150255Z AUTO 14003KT 10SM CLR 23/15 A3001 RMK AO2
Observed
Jul-15 @ 02:55 UTC
Wind
  • 140° at 3 KTS
Visibility
10 SM
Flight Rules
VFR
Cloud Levels
  • Clear skies
Temperature
23°C / 73°F
Dewpoint
15°C / 59°F
Humidity
61%
Altimeter
30.01" Hg
Pressure
1016.22 hPa
Previous

38 mins ago

KMWC 150235Z AUTO 00000KT 10SM CLR 24/15 A3000 RMK AO2
Observed
Jul-15 @ 02:35 UTC
Visibility
10 SM
Flight Rules
VFR
Cloud Levels
  • Clear skies
Temperature
24°C / 75°F
Dewpoint
15°C / 59°F
Humidity
57%
Altimeter
30" Hg
Pressure
1015.92 hPa
Previous

58 mins ago

KMWC 150215Z AUTO 00000KT 10SM CLR 24/15 A2999 RMK AO2
Observed
Jul-15 @ 02:15 UTC
Visibility
10 SM
Flight Rules
VFR
Cloud Levels
  • Clear skies
Temperature
24°C / 75°F
Dewpoint
15°C / 59°F
Humidity
57%
Altimeter
29.99" Hg
Pressure
1015.62 hPa